Forside
METAR-TAF:

METAR-TAF

Lufthavne :

Blytheville, Arkansas, USA

Breddekreds: 35-58N, længdekreds: 089-57W, højde: 78 m

Aktuelle vejr

Denne rapport blev lavet for 3 timer og 58 minutter siden, kl. 19:52 UTC
Vind 5 kt fra sydvest
Temperatur 20°C
Fugtighed 46%
Tryk 1021 hPa
Sigt: 16.1 km
Spredte skyer i en højde af 5000 ft
Brudte skyer i en højde af 9000 ft
Overskyet i en højde af 15000 ft

METAR: KBYH 191952Z 22005KT 10SM SCT050 BKN090 OVC150 20/08 A3014

Tid: 18:50 (23:50 UTC)


TAF: fraværende

Vejrobservationer og prognoser fra mere end 4000 lufthavne (METAR og TAF).

De gule og røde prikker repræsenterer de meteorologiske stationer.

Flyt musen over at se navnet på stationen.

Så klik over at se vejr observationer og prognoser.

At skifte det kort: Klik på de grønne knapper med et sort kors for at zoome ind; på den grønne knap med en bindestreg for at zoome ud; eller på de grønne pile for tilstødende kort.


METAR-TAF: